Huvudsida
METAR-TAF:

METAR-TAF

Flygplatser :

Shanghai-Pudong, Kina

Shanghai Pudong International Airport

latitud: 31-07N, longitud: 121-46E, höjd: 4 m

Aktuellt väderrapport

Denna rapport gjordes för 24 minuter sedan, klockan 08:30 UTC
Vind 12 kt från nordost
Temperatur 18°C
Fuktighet 59%
Tryck 1015 hPa
Sikt 10 km eller mer
Inga moln under 1 500 m eller inga cumulonimbus

METAR: ZSPD 250830Z 05006MPS CAVOK 18/10 Q1015 NOSIG

Tid: 16:54 (08:54 UTC)

Väderprognos

Denna rapport gjordes för 5 timmar och 29 minuter sedan, klockan 03:25 UTC
Prognos gäller från 25 kl. 06 UTC till 26 kl. 06 UTC
Vind 8 kt från nord
Sikt: 5000 m
Spridda moln på en höjd av 2000 ft
fuktdis
Blir
från 25 kl. 22 UTC till 25 kl. 24 UTC
Vind 8 kt från ost

TAF: ZSPD 250325Z 2506/2606 01004MPS 5000 BR SCT020 TX20/2506Z TN12/2521Z BECMG 2522/2524 09004MPS

Aktuella väderrapporter och prognoser från 4000 flygplatser (METAR- och TAF-rapporter).

De tillgängliga stationerna syns som gula och röda prickar på kartan.

För musen över prickarna för att se namnen på stationerna.

Klicka sedan för att få väderrapporter och prognoser.

För att ändra kartan: Klicka på de gröna knapparna med ett svart kors på för att zooma in; den gröna knappen med ett streck på för att zooma ut; eller på de gröna pilarna för angränsande kartor.


METAR-TAF: